Time;durP1;ratioP1;P1;durP2;ratioP2;P2;SDS_P1;SDS_P2;PMS_P1;PMS_P2;Temp;Humidity;BMP_temperature;BMP_pressure;BME280_temperature;BME280_humidity;BME280_pressure;Samples;Min_cycle;Max_cycle;Signal;HPM_P1;HPM_P2
2023/12/09 00:00:17;;;;;;;0.10;0.10;;;;;;;;;;4941434;29;20087;-94
2023/12/09 00:02:43;;;;;;;0.10;0.10;;;;;;;;;;4942530;29;20008;-93
2023/12/09 00:05:10;;;;;;;0.10;0.10;;;;;;;;;;4950708;28;20032;-94
2023/12/09 00:07:36;;;;;;;0.05;0.05;;;;;;;;;;4937733;29;20103;-93
2023/12/09 00:10:02;;;;;;;0.10;0.10;;;;;;;;;;4940535;29;20024;-95
2023/12/09 00:12:28;;;;;;;0.10;0.10;;;;;;;;;;4941081;29;20020;-93
2023/12/09 00:14:54;;;;;;;0.10;0.10;;;;;;;;;;4956396;28;20024;-94
2023/12/09 00:17:21;;;;;;;0.00;0.00;;;;;;;;;;4940241;29;20032;-94
2023/12/09 00:19:46;;;;;;;0.10;0.10;;;;;;;;;;4947710;28;20091;-92
2023/12/09 00:22:12;;;;;;;0.10;0.10;;;;;;;;;;4937855;29;20061;-96
2023/12/09 00:24:38;;;;;;;0.10;0.10;;;;;;;;;;4940874;29;20084;-94
2023/12/09 00:27:04;;;;;;;0.10;0.10;;;;;;;;;;4939113;29;20068;-94
2023/12/09 00:29:30;;;;;;;0.10;0.10;;;;;;;;;;4959231;28;20035;-94
2023/12/09 00:31:56;;;;;;;0.10;0.10;;;;;;;;;;4960601;28;20052;-94
2023/12/09 00:34:22;;;;;;;0.10;0.10;;;;;;;;;;4944615;28;20044;-94
2023/12/09 00:36:48;;;;;;;0.10;0.10;;;;;;;;;;4943724;28;20012;-94
2023/12/09 00:39:14;;;;;;;0.00;0.00;;;;;;;;;;4938367;29;20016;-93
2023/12/09 00:41:40;;;;;;;0.10;0.10;;;;;;;;;;4939919;29;20043;-93
2023/12/09 00:44:06;;;;;;;0.10;0.10;;;;;;;;;;4940309;29;20028;-94
2023/12/09 00:46:32;;;;;;;0.00;0.00;;;;;;;;;;4940175;29;20057;-94
2023/12/09 00:48:58;;;;;;;0.10;0.10;;;;;;;;;;4947976;29;20095;-93
2023/12/09 00:51:24;;;;;;;0.10;0.10;;;;;;;;;;4940494;29;20024;-95
2023/12/09 00:53:50;;;;;;;0.10;0.10;;;;;;;;;;4940219;29;20036;-93
2023/12/09 00:56:16;;;;;;;0.00;0.00;;;;;;;;;;4927816;29;20044;-93
2023/12/09 00:58:42;;;;;;;0.10;0.10;;;;;;;;;;4940277;29;20016;-93
2023/12/09 01:01:08;;;;;;;0.00;0.00;;;;;;;;;;4939725;29;20026;-93
2023/12/09 01:03:34;;;;;;;0.10;0.10;;;;;;;;;;4939946;29;20040;-95
2023/12/09 01:06:00;;;;;;;0.08;0.08;;;;;;;;;;4942678;28;20067;-93
2023/12/09 01:08:26;;;;;;;0.00;0.00;;;;;;;;;;4937955;29;20028;-93
2023/12/09 01:10:53;;;;;;;0.10;0.10;;;;;;;;;;4935607;29;20004;-94
2023/12/09 01:13:19;;;;;;;0.10;0.10;;;;;;;;;;4940054;29;20064;-93
2023/12/09 01:15:45;;;;;;;0.10;0.10;;;;;;;;;;4939412;29;20024;-94
2023/12/09 01:18:11;;;;;;;0.00;0.00;;;;;;;;;;4939326;29;20028;-95
2023/12/09 01:20:37;;;;;;;0.10;0.10;;;;;;;;;;4934030;29;20012;-94
2023/12/09 01:23:03;;;;;;;0.00;0.00;;;;;;;;;;4944373;29;20027;-93
2023/12/09 01:25:29;;;;;;;0.10;0.10;;;;;;;;;;4938897;29;20027;-94
2023/12/09 01:27:55;;;;;;;0.10;0.10;;;;;;;;;;4961279;29;20031;-92
2023/12/09 01:30:21;;;;;;;0.03;0.03;;;;;;;;;;4938659;29;20067;-94
2023/12/09 01:32:47;;;;;;;0.10;0.10;;;;;;;;;;4938871;29;20024;-94
2023/12/09 01:35:13;;;;;;;0.10;0.10;;;;;;;;;;4939489;29;20027;-94
2023/12/09 01:37:39;;;;;;;0.08;0.08;;;;;;;;;;4942671;29;20021;-93
2023/12/09 01:40:05;;;;;;;0.08;0.08;;;;;;;;;;4947621;29;20019;-94
2023/12/09 01:42:31;;;;;;;0.10;0.10;;;;;;;;;;4945643;29;20015;-94
2023/12/09 01:44:57;;;;;;;0.10;0.10;;;;;;;;;;4941833;29;20024;-94
2023/12/09 01:47:23;;;;;;;0.10;0.10;;;;;;;;;;4943590;29;20012;-93
2023/12/09 01:49:50;;;;;;;0.10;0.10;;;;;;;;;;4943326;29;20032;-94
2023/12/09 01:52:16;;;;;;;0.00;0.00;;;;;;;;;;4926662;29;21376;-93
2023/12/09 01:54:42;;;;;;;0.00;0.00;;;;;;;;;;4942750;29;20043;-94
2023/12/09 01:57:08;;;;;;;0.00;0.00;;;;;;;;;;4948554;29;20012;-94
2023/12/09 01:59:37;;;;;;;0.10;0.10;;;;;;;;;;4947522;29;20035;-95
2023/12/09 02:02:03;;;;;;;0.00;0.00;;;;;;;;;;4963316;29;20032;-94
2023/12/09 02:04:29;;;;;;;0.10;0.10;;;;;;;;;;4944659;29;20122;-92
2023/12/09 02:06:55;;;;;;;0.00;0.00;;;;;;;;;;4946333;29;20079;-93
2023/12/09 02:09:21;;;;;;;0.00;0.00;;;;;;;;;;4942067;29;20024;-94
2023/12/09 02:11:54;;;;;;;0.00;0.00;;;;;;;;;;4942410;29;20095;-93
2023/12/09 02:14:32;;;;;;;0.10;0.10;;;;;;;;;;4958515;28;20000;-95
2023/12/09 02:17:20;;;;;;;0.00;0.00;;;7.00;99.90;;;;;;4941314;28;20020;-93
2023/12/09 02:19:46;;;;;;;0.00;0.00;;;;;;;;;;4926572;29;20024;-94
2023/12/09 02:22:12;;;;;;;0.03;0.03;;;;;;;;;;4929659;29;20056;-92
2023/12/09 02:24:38;;;;;;;0.00;0.00;;;;;;;;;;4941892;28;20017;-94
2023/12/09 02:27:12;;;;;;;0.00;0.00;;;;;;;;;;4943503;29;20028;-93
2023/12/09 02:29:54;;;;;;;0.00;0.00;;;;;;;;;;4941735;29;20015;-94
2023/12/09 02:32:21;;;;;;;0.00;0.00;;;;;;;;;;4956239;29;20028;-93
2023/12/09 02:34:48;;;;;;;0.00;0.00;;;;;;;;;;4918334;29;20036;-93
2023/12/09 02:37:15;;;;;;;0.10;0.10;;;;;;;;;;4968507;29;20029;-93
2023/12/09 02:39:42;;;;;;;0.10;0.10;;;;;;;;;;4926414;29;20016;-96
2023/12/09 06:42:55;;;;;;;0.10;0.10;;;;;;;;;;4953926;28;20032;-94
2023/12/09 06:45:21;;;;;;;0.10;0.10;;;;;;;;;;4947158;28;20047;-95
2023/12/09 06:47:47;;;;;;;0.10;0.10;;;;;;;;;;4940934;29;20084;-95
2023/12/09 06:50:13;;;;;;;0.10;0.10;;;;;;;;;;4944733;28;20112;-94
2023/12/09 06:52:39;;;;;;;0.25;0.10;;;;;;;;;;4942588;28;20048;-96
2023/12/09 06:55:06;;;;;;;0.10;0.10;;;;;;;;;;4950337;28;20016;-96
2023/12/09 10:28:15;;;;;;;0.10;0.10;;;6.70;99.90;;;;;;4918511;29;20072;-86
2023/12/09 10:30:41;;;;;;;0.00;0.00;;;6.80;99.90;;;;;;4935344;29;20498;-86
2023/12/09 10:33:09;;;;;;;0.10;0.10;;;6.80;99.90;;;;;;4917322;29;20032;-85
2023/12/09 10:35:35;;;;;;;0.10;0.10;;;6.90;99.90;;;;;;4916101;29;20032;-85
2023/12/09 10:38:03;;;;;;;0.00;0.00;;;7.20;99.90;;;;;;4916818;29;20028;-86
2023/12/09 10:40:29;;;;;;;0.03;0.03;;;;;;;;;;4918368;29;20042;-83
2023/12/09 10:42:56;;;;;;;0.00;0.00;;;7.00;99.90;;;;;;4913404;29;20036;-86
2023/12/09 10:45:23;;;;;;;0.10;0.10;;;;;;;;;;4926057;29;20075;-88
2023/12/09 10:47:49;;;;;;;0.08;0.08;;;;;;;;;;4916661;29;20028;-88
2023/12/09 10:50:15;;;;;;;0.00;0.00;;;;;;;;;;4916627;29;20401;-87
2023/12/09 10:52:41;;;;;;;0.10;0.10;;;;;;;;;;4916512;29;20404;-87
2023/12/09 10:55:06;;;;;;;0.10;0.10;;;7.20;99.90;;;;;;4928815;29;20413;-87
2023/12/09 10:57:33;;;;;;;0.10;0.10;;;7.30;99.90;;;;;;4913080;29;20062;-87
2023/12/09 11:00:00;;;;;;;0.10;0.10;;;;;;;;;;4909843;29;20063;-87
2023/12/09 11:02:27;;;;;;;0.10;0.10;;;;;;;;;;4915805;29;20385;-86
2023/12/09 11:04:53;;;;;;;0.10;0.10;;;7.50;99.90;;;;;;4914676;29;20600;-87
2023/12/09 11:07:20;;;;;;;0.10;0.10;;;;;;;;;;4915137;29;20474;-86
2023/12/09 11:09:46;;;;;;;0.10;0.10;;;;;;;;;;4915681;29;20067;-86
2023/12/09 11:12:26;;;;;;;0.10;0.10;;;7.90;99.90;;;;;;4914548;29;20028;-86
2023/12/09 11:14:52;;;;;;;0.08;0.08;;;;;;;;;;4912200;29;20080;-87
2023/12/09 11:17:37;;;;;;;0.05;0.05;;;8.00;99.90;;;;;;4914885;29;20032;-88
2023/12/09 11:20:13;;;;;;;0.08;0.08;;;8.10;99.90;;;;;;4911031;29;20040;-87
2023/12/09 11:22:44;;;;;;;0.10;0.10;;;8.20;99.90;;;;;;4912250;29;20032;-86
2023/12/09 11:25:12;;;;;;;0.10;0.10;;;8.30;99.90;;;;;;4912224;29;20036;-87
2023/12/09 11:27:38;;;;;;;0.10;0.10;;;;;;;;;;4913440;29;20040;-87
2023/12/09 11:30:04;;;;;;;0.10;0.10;;;8.40;99.90;;;;;;4911245;29;20036;-87
2023/12/09 11:32:31;;;;;;;0.10;0.10;;;;;;;;;;4912977;29;20055;-86
2023/12/09 11:34:57;;;;;;;0.10;0.10;;;;;;;;;;4912437;29;20115;-88
2023/12/09 11:37:26;;;;;;;0.10;0.10;;;8.20;99.90;;;;;;4910927;29;20024;-86
2023/12/09 11:39:52;;;;;;;0.03;0.03;;;;;;;;;;4913435;29;20071;-88
2023/12/09 11:42:18;;;;;;;0.10;0.10;;;8.20;99.90;;;;;;4913243;29;20065;-86
2023/12/09 11:44:46;;;;;;;0.10;0.10;;;8.10;99.90;;;;;;4911965;29;20674;-87
2023/12/09 11:47:12;;;;;;;0.10;0.10;;;8.10;99.90;;;;;;4928970;29;20400;-87
2023/12/09 11:49:38;;;;;;;0.10;0.10;;;;;;;;;;4912493;29;20390;-87
2023/12/09 11:52:04;;;;;;;0.10;0.10;;;;;;;;;;4913408;29;20504;-87
2023/12/09 11:54:30;;;;;;;0.10;0.10;;;;;;;;;;4909326;29;20028;-87
2023/12/09 11:56:56;;;;;;;0.10;0.10;;;;;;;;;;4912322;29;20441;-87
2023/12/09 11:59:22;;;;;;;0.00;0.00;;;8.20;99.90;;;;;;4916162;29;20123;-86
2023/12/09 12:01:47;;;;;;;0.10;0.10;;;8.10;99.90;;;;;;4909316;29;20029;-87
2023/12/09 12:04:13;;;;;;;0.10;0.10;;;;;;;;;;4911711;29;20098;-87
2023/12/09 12:06:39;;;;;;;0.10;0.10;;;;;;;;;;4924419;29;20043;-88
2023/12/09 12:09:05;;;;;;;0.10;0.10;;;8.00;99.90;;;;;;4916267;29;20058;-87
2023/12/09 12:11:32;;;;;;;0.00;0.00;;;8.00;99.90;;;;;;4914491;29;20552;-87
2023/12/09 12:14:00;;;;;;;0.10;0.10;;;;;;;;;;4916132;29;20083;-87
2023/12/09 12:16:26;;;;;;;0.00;0.00;;;;;;;;;;4913585;29;20051;-86
2023/12/09 12:18:54;;;;;;;0.10;0.10;;;8.00;99.90;;;;;;4919156;29;20079;-87
2023/12/09 12:21:20;;;;;;;0.10;0.10;;;;;;;;;;4915143;29;20043;-86
2023/12/09 12:23:51;;;;;;;0.10;0.10;;;8.00;99.90;;;;;;4912846;29;20696;-84
2023/12/09 12:26:17;;;;;;;0.10;0.10;;;;;;;;;;4913283;29;20485;-88
2023/12/09 12:28:48;;;;;;;0.10;0.10;;;8.00;99.90;;;;;;4926658;29;20032;-87
2023/12/09 12:31:13;;;;;;;0.10;0.10;;;8.10;99.90;;;;;;4915854;29;20032;-87
2023/12/09 12:33:39;;;;;;;0.10;0.10;;;8.10;99.90;;;;;;4919332;29;20044;-87
2023/12/09 12:36:05;;;;;;;0.10;0.10;;;8.10;99.90;;;;;;4921828;29;20492;-86
2023/12/09 12:38:32;;;;;;;0.10;0.10;;;8.10;99.90;;;;;;4912732;29;20474;-87
2023/12/09 12:40:58;;;;;;;0.00;0.00;;;;;;;;;;4918502;29;20028;-87
2023/12/09 12:43:28;;;;;;;0.00;0.00;;;8.10;99.90;;;;;;4912750;29;20028;-87
2023/12/09 12:45:54;;;;;;;;;;;8.10;99.90;;;;;;4929416;29;20063;-87
2023/12/09 12:48:20;;;;;;;0.10;0.10;;;8.00;99.90;;;;;;4914072;29;20411;-86
2023/12/09 12:50:48;;;;;;;0.10;0.10;;;8.10;99.90;;;;;;4929121;29;20145;-87
2023/12/09 12:53:16;;;;;;;0.10;0.10;;;7.90;99.90;;;;;;4916482;29;20548;-86
2023/12/09 12:55:42;;;;;;;0.10;0.10;;;;;;;;;;4913970;29;20035;-87
2023/12/09 12:58:08;;;;;;;0.10;0.10;;;;;;;;;;4916462;29;20012;-87
2023/12/09 13:00:34;;;;;;;0.10;0.10;;;7.90;99.90;;;;;;4913210;29;20031;-87
2023/12/09 13:03:00;;;;;;;0.10;0.10;;;;;;;;;;4911428;29;20489;-87
2023/12/09 13:05:26;;;;;;;0.05;0.05;;;;;;;;;;4914299;29;20067;-87
2023/12/09 13:07:52;;;;;;;0.10;0.10;;;;;;;;;;4912797;29;20631;-87
2023/12/09 13:10:18;;;;;;;0.10;0.10;;;8.10;99.90;;;;;;4913229;29;20038;-86
2023/12/09 13:12:44;;;;;;;0.10;0.10;;;;;;;;;;4920854;29;20162;-87
2023/12/09 13:15:11;;;;;;;0.10;0.10;;;8.10;99.90;;;;;;4920342;29;20060;-86
2023/12/09 13:17:37;;;;;;;0.10;0.10;;;;;;;;;;4913815;29;20024;-87
2023/12/09 13:20:03;;;;;;;0.10;0.10;;;8.00;99.90;;;;;;4914968;29;20059;-85
2023/12/09 13:22:30;;;;;;;0.10;0.10;;;;;;;;;;4915610;29;20023;-86
2023/12/09 13:24:56;;;;;;;0.10;0.10;;;;;;;;;;4920771;29;20028;-87
2023/12/09 13:27:22;;;;;;;0.10;0.10;;;;;;;;;;4934346;29;20549;-87
2023/12/09 13:29:48;;;;;;;0.00;0.00;;;;;;;;;;4915815;29;20409;-87
2023/12/09 13:32:15;;;;;;;0.10;0.10;;;;;;;;;;4914854;29;20508;-86
2023/12/09 13:34:41;;;;;;;0.10;0.10;;;;;;;;;;4920032;29;20038;-87
2023/12/09 13:37:07;;;;;;;0.10;0.10;;;7.70;99.90;;;;;;4915595;29;20035;-87
2023/12/09 13:39:33;;;;;;;0.10;0.10;;;;;;;;;;4915319;29;20024;-86
2023/12/09 13:42:00;;;;;;;0.10;0.10;;;;;;;;;;4918613;29;20055;-85
2023/12/09 13:44:26;;;;;;;0.10;0.10;;;;;;;;;;4919183;29;20028;-87
2023/12/09 13:46:52;;;;;;;0.00;0.00;;;;;;;;;;4916509;29;20032;-87
2023/12/09 13:49:18;;;;;;;0.10;0.10;;;;;;;;;;4921287;29;20032;-86
2023/12/09 13:51:45;;;;;;;0.10;0.10;;;;;;;;;;4921635;29;20051;-86
2023/12/09 13:54:11;;;;;;;0.10;0.10;;;;;;;;;;4916494;29;20115;-86
2023/12/09 13:56:36;;;;;;;0.10;0.10;;;;;;;;;;4911373;29;20462;-86
2023/12/09 13:59:03;;;;;;;0.10;0.10;;;7.80;99.90;;;;;;4914302;29;20071;-86
2023/12/09 14:01:28;;;;;;;0.10;0.10;;;;;;;;;;4913763;29;20040;-86
2023/12/09 14:03:54;;;;;;;0.10;0.10;;;;;;;;;;4913616;29;20039;-86
2023/12/09 14:06:20;;;;;;;0.10;0.10;;;;;;;;;;4912780;29;20121;-88
2023/12/09 14:08:46;;;;;;;0.10;0.10;;;;;;;;;;4912967;29;20040;-86
2023/12/09 14:11:14;;;;;;;0.10;0.10;;;;;;;;;;4913768;29;20032;-85
2023/12/09 14:13:40;;;;;;;0.10;0.10;;;7.70;99.90;;;;;;4912717;29;20032;-86
2023/12/09 14:16:06;;;;;;;0.10;0.10;;;;;;;;;;4912091;29;20077;-86
2023/12/09 14:18:32;;;;;;;0.10;0.10;;;;;;;;;;4912430;29;20040;-85
2023/12/09 14:20:58;;;;;;;0.10;0.10;;;;;;;;;;4913715;29;20028;-87
2023/12/09 14:23:27;;;;;;;0.10;0.10;;;;;;;;;;4909879;29;20040;-85
2023/12/09 14:25:53;;;;;;;0.10;0.10;;;;;;;;;;4913451;29;20036;-86
2023/12/09 14:28:19;;;;;;;0.10;0.10;;;7.70;99.90;;;;;;4916449;29;20387;-87
2023/12/09 14:30:45;;;;;;;0.10;0.10;;;;;;;;;;4914478;29;20032;-86
2023/12/09 14:33:11;;;;;;;0.10;0.10;;;;;;;;;;4913456;29;20020;-86
2023/12/09 14:35:37;;;;;;;0.10;0.10;;;;;;;;;;4913495;29;20016;-86
2023/12/09 14:38:05;;;;;;;0.10;0.10;;;7.80;99.90;;;;;;4908903;29;20033;-86
2023/12/09 14:40:31;;;;;;;0.10;0.10;;;;;;;;;;4917072;29;20477;-86
2023/12/09 14:43:01;;;;;;;0.10;0.10;;;;;;;;;;4912408;29;20079;-86
2023/12/09 14:45:26;;;;;;;0.10;0.10;;;;;;;;;;4920475;29;20127;-86
2023/12/09 14:47:52;;;;;;;0.10;0.10;;;7.90;99.90;;;;;;4917051;29;20450;-86
2023/12/09 14:50:17;;;;;;;0.10;0.10;;;7.80;99.90;;;;;;4913392;29;20037;-86
2023/12/09 14:52:45;;;;;;;0.10;0.10;;;;;;;;;;4917774;29;20028;-86
2023/12/09 14:55:10;;;;;;;0.10;0.10;;;;;;;;;;4910654;29;20063;-86
2023/12/09 14:57:36;;;;;;;0.10;0.10;;;;;;;;;;4931180;29;20052;-87
2023/12/09 15:00:03;;;;;;;0.10;0.10;;;;;;;;;;4916451;29;20032;-86
2023/12/09 15:02:29;;;;;;;0.10;0.10;;;;;;;;;;4932262;29;20075;-86
2023/12/09 15:04:55;;;;;;;0.10;0.10;;;;;;;;;;4915410;29;20055;-86
2023/12/09 15:07:22;;;;;;;0.10;0.10;;;7.80;99.90;;;;;;4915340;29;20039;-86
2023/12/09 15:09:48;;;;;;;0.10;0.10;;;;;;;;;;4913643;29;20035;-86
2023/12/09 15:12:13;;;;;;;0.00;0.00;;;;;;;;;;4931211;29;20122;-86
2023/12/09 15:14:39;;;;;;;0.10;0.10;;;;;;;;;;4918937;29;20024;-86
2023/12/09 15:17:05;;;;;;;0.10;0.10;;;;;;;;;;4919599;29;20023;-87
2023/12/09 15:19:32;;;;;;;0.00;0.00;;;;;;;;;;4917217;29;20477;-86
2023/12/09 15:21:58;;;;;;;0.00;0.00;;;;;;;;;;4914455;29;20547;-86
2023/12/09 15:24:24;;;;;;;0.10;0.10;;;;;;;;;;4915868;29;20127;-86
2023/12/09 15:26:51;;;;;;;0.10;0.10;;;;;;;;;;4915242;29;20044;-87
2023/12/09 15:29:16;;;;;;;0.10;0.10;;;7.90;99.90;;;;;;4920527;29;20091;-87
2023/12/09 15:31:42;;;;;;;0.10;0.10;;;;;;;;;;4914567;29;20036;-86
2023/12/09 15:34:08;;;;;;;0.10;0.10;;;;;;;;;;4915651;29;20312;-87
2023/12/09 15:36:34;;;;;;;0.10;0.10;;;;;;;;;;4936922;28;20079;-86
2023/12/09 15:39:00;;;;;;;0.10;0.10;;;;;;;;;;4921544;29;20035;-86
2023/12/09 15:41:26;;;;;;;0.10;0.10;;;;;;;;;;4914277;29;20040;-86
2023/12/09 15:43:51;;;;;;;0.00;0.00;;;7.90;99.90;;;;;;4917620;29;20070;-87
2023/12/09 15:46:17;;;;;;;0.10;0.10;;;;;;;;;;4916404;29;20036;-87
2023/12/09 15:48:45;;;;;;;0.10;0.10;;;;;;;;;;4922002;29;20070;-87
2023/12/09 15:51:11;;;;;;;0.10;0.10;;;;;;;;;;4915850;29;20398;-86
2023/12/09 15:53:39;;;;;;;0.10;0.10;;;;;;;;;;4926307;29;20036;-86
2023/12/09 15:56:08;;;;;;;0.10;0.10;;;7.80;99.90;;;;;;4917797;29;20032;-87
2023/12/09 15:58:34;;;;;;;0.10;0.10;;;;;;;;;;4919937;29;20056;-87
2023/12/09 16:01:01;;;;;;;0.10;0.10;;;;;;;;;;4919158;29;20115;-87
2023/12/09 16:03:27;;;;;;;0.10;0.10;;;;;;;;;;4921435;29;20441;-87
2023/12/09 16:05:53;;;;;;;0.10;0.10;;;;;;;;;;4923898;29;20024;-87
2023/12/09 16:08:19;;;;;;;0.10;0.10;;;;;;;;;;4920289;29;20130;-87
2023/12/09 16:10:45;;;;;;;0.10;0.10;;;;;;;;;;4923714;29;20024;-88
2023/12/09 16:13:11;;;;;;;0.10;0.10;;;7.80;99.90;;;;;;4919977;29;20036;-86
2023/12/09 16:15:37;;;;;;;0.10;0.10;;;7.80;99.90;;;;;;4923977;29;20032;-87
2023/12/09 16:18:03;;;;;;;0.10;0.10;;;;;;;;;;4940732;29;20493;-88
2023/12/09 16:20:28;;;;;;;0.10;0.10;;;;;;;;;;4919901;29;20127;-88
2023/12/09 16:22:55;;;;;;;0.10;0.10;;;7.80;99.90;;;;;;4920449;29;20059;-88
2023/12/09 16:25:21;;;;;;;0.10;0.10;;;;;;;;;;4918531;29;20413;-87
2023/12/09 16:27:47;;;;;;;0.10;0.10;;;;;;;;;;4912735;29;20492;-89
2023/12/09 16:30:13;;;;;;;0.10;0.10;;;7.70;99.90;;;;;;4933803;29;20040;-88
2023/12/09 16:32:39;;;;;;;0.00;0.00;;;;;;;;;;4915605;29;20135;-87
2023/12/09 16:35:05;;;;;;;0.10;0.10;;;;;;;;;;4914263;29;20469;-87
2023/12/09 16:37:31;;;;;;;0.10;0.10;;;;;;;;;;4912771;29;20127;-87
2023/12/09 16:39:57;;;;;;;0.10;0.10;;;7.60;99.90;;;;;;4909613;29;20137;-88
2023/12/09 16:42:23;;;;;;;0.00;0.00;;;;;;;;;;4919524;29;20207;-89
2023/12/09 16:44:48;;;;;;;0.10;0.10;;;7.60;99.90;;;;;;4914382;29;20536;-87
2023/12/09 16:47:15;;;;;;;0.10;0.10;;;;;;;;;;4918002;29;20079;-86
2023/12/09 16:49:42;;;;;;;0.10;0.10;;;;;;;;;;4912608;29;20040;-88
2023/12/09 16:52:08;;;;;;;0.10;0.10;;;;;;;;;;4918260;29;20039;-87
2023/12/09 16:54:34;;;;;;;0.00;0.00;;;;;;;;;;4915338;29;20024;-88
2023/12/09 16:57:01;;;;;;;0.10;0.10;;;;;;;;;;4918344;29;20032;-88
2023/12/09 16:59:27;;;;;;;0.10;0.10;;;;;;;;;;4912944;29;20482;-89
2023/12/09 17:01:53;;;;;;;0.10;0.10;;;;;;;;;;4915614;29;20115;-87
2023/12/09 17:04:19;;;;;;;0.10;0.10;;;;;;;;;;4917327;29;20059;-87
2023/12/09 17:06:45;;;;;;;0.10;0.10;;;;;;;;;;4918043;29;20062;-87
2023/12/09 17:09:11;;;;;;;0.10;0.10;;;;;;;;;;4912951;29;20797;-88
2023/12/09 17:11:37;;;;;;;0.08;0.08;;;;;;;;;;4914156;29;20454;-87
2023/12/09 17:14:04;;;;;;;0.10;0.10;;;;;;;;;;4914926;29;20083;-86
2023/12/09 17:16:30;;;;;;;0.10;0.10;;;;;;;;;;4912925;29;20032;-88
2023/12/09 17:18:55;;;;;;;0.10;0.10;;;7.50;99.90;;;;;;4905813;29;20032;-87
2023/12/09 17:21:21;;;;;;;0.10;0.10;;;;;;;;;;4913343;29;20040;-87
2023/12/09 17:23:47;;;;;;;0.10;0.10;;;7.50;99.90;;;;;;4913433;29;20034;-87
2023/12/09 17:26:13;;;;;;;0.03;0.03;;;;;;;;;;4913589;29;20032;-87
2023/12/09 17:28:39;;;;;;;0.10;0.10;;;;;;;;;;4914186;29;20032;-89
2023/12/09 17:31:05;;;;;;;0.10;0.10;;;;;;;;;;4917254;29;20115;-88
2023/12/09 17:33:31;;;;;;;0.10;0.10;;;;;;;;;;4913061;29;20601;-88
2023/12/09 17:35:57;;;;;;;0.10;0.10;;;;;;;;;;4916495;29;20477;-88
2023/12/09 17:38:22;;;;;;;0.00;0.00;;;7.50;99.90;;;;;;4929067;29;20025;-88
2023/12/09 17:40:48;;;;;;;0.10;0.10;;;;;;;;;;4913150;29;20036;-87
2023/12/09 17:43:14;;;;;;;0.10;0.10;;;;;;;;;;4913602;29;20076;-88
2023/12/09 17:45:40;;;;;;;0.10;0.10;;;;;;;;;;4911848;29;20032;-88
2023/12/09 17:48:06;;;;;;;0.10;0.10;;;;;;;;;;4911067;29;20157;-89
2023/12/09 17:50:31;;;;;;;0.00;0.00;;;7.40;99.90;;;;;;4917753;29;20040;-88
2023/12/09 17:52:57;;;;;;;0.00;0.00;;;7.30;99.90;;;;;;4910685;29;20394;-88
2023/12/09 17:55:22;;;;;;;0.00;0.00;;;7.30;99.90;;;;;;4911528;29;20032;-87
2023/12/09 17:57:48;;;;;;;0.10;0.10;;;;;;;;;;4915796;29;20026;-89
2023/12/09 18:00:14;;;;;;;0.10;0.10;;;;;;;;;;4912127;29;20509;-87
2023/12/09 18:02:40;;;;;;;0.00;0.00;;;;;;;;;;4914302;29;20114;-89
2023/12/09 18:05:07;;;;;;;0.10;0.10;;;7.40;99.90;;;;;;4910430;29;21402;-86
2023/12/09 18:07:32;;;;;;;0.10;0.10;;;7.30;99.90;;;;;;4908993;29;20496;-86
2023/12/09 18:09:58;;;;;;;0.10;0.10;;;;;;;;;;4909926;29;20032;-88
2023/12/09 18:12:24;;;;;;;0.10;0.10;;;7.40;99.90;;;;;;4913216;29;20371;-87
2023/12/09 18:14:50;;;;;;;0.00;0.00;;;7.40;99.90;;;;;;4910457;29;20028;-88
2023/12/09 18:17:16;;;;;;;0.10;0.10;;;;;;;;;;4913035;29;20445;-88
2023/12/09 18:19:45;;;;;;;0.10;0.10;;;;;;;;;;4934719;29;20195;-86
2023/12/09 18:22:11;;;;;;;0.10;0.10;;;;;;;;;;4914978;29;20028;-89
2023/12/09 18:24:37;;;;;;;0.03;0.03;;;;;;;;;;4933665;29;20092;-86
2023/12/09 18:27:03;;;;;;;0.10;0.10;;;;;;;;;;4913396;29;20410;-87
2023/12/09 18:29:29;;;;;;;0.10;0.10;;;;;;;;;;4915165;29;20090;-87
2023/12/09 18:31:55;;;;;;;0.10;0.10;;;;;;;;;;4931471;29;20044;-89
2023/12/09 18:34:21;;;;;;;0.10;0.10;;;;;;;;;;4915077;29;20119;-86
2023/12/09 18:36:48;;;;;;;0.00;0.00;;;7.30;99.90;;;;;;4915546;29;20506;-88
2023/12/09 18:39:13;;;;;;;0.10;0.10;;;;;;;;;;4918060;29;20046;-88
2023/12/09 18:41:39;;;;;;;0.10;0.10;;;;;;;;;;4916999;29;20116;-89
2023/12/09 18:44:05;;;;;;;0.10;0.10;;;;;;;;;;4911558;29;20115;-87
2023/12/09 18:46:31;;;;;;;0.10;0.10;;;;;;;;;;4932275;29;20458;-88
2023/12/09 18:48:58;;;;;;;0.10;0.10;;;;;;;;;;4914182;29;20123;-88
2023/12/09 18:51:24;;;;;;;0.00;0.00;;;;;;;;;;4919657;29;20478;-89
2023/12/09 18:53:50;;;;;;;0.08;0.08;;;7.20;99.90;;;;;;4934459;29;20028;-87
2023/12/09 18:56:16;;;;;;;0.10;0.10;;;;;;;;;;4918887;29;20028;-86
2023/12/09 18:58:42;;;;;;;0.10;0.10;;;;;;;;;;4934540;29;20024;-87
2023/12/09 19:01:09;;;;;;;0.10;0.10;;;;;;;;;;4916904;29;20031;-87
2023/12/09 19:03:35;;;;;;;0.10;0.10;;;;;;;;;;4918548;29;20032;-87
2023/12/09 19:06:01;;;;;;;0.10;0.10;;;7.20;99.90;;;;;;4914316;29;20028;-87
2023/12/09 19:08:26;;;;;;;0.10;0.10;;;7.50;99.90;;;;;;4916410;29;20047;-88
2023/12/09 19:10:52;;;;;;;0.10;0.10;;;;;;;;;;4918067;29;20035;-88
2023/12/09 19:13:18;;;;;;;0.10;0.10;;;;;;;;;;4913824;29;20036;-87
2023/12/09 19:15:44;;;;;;;0.10;0.10;;;;;;;;;;4913712;29;20079;-88
2023/12/09 19:18:10;;;;;;;0.10;0.10;;;;;;;;;;4916086;29;20111;-89
2023/12/09 19:20:36;;;;;;;0.00;0.00;;;;;;;;;;4919206;29;20123;-87
2023/12/09 19:23:02;;;;;;;0.10;0.10;;;;;;;;;;4915638;29;20582;-88
2023/12/09 19:25:28;;;;;;;0.10;0.10;;;;;;;;;;4920787;29;20032;-87
2023/12/09 19:27:55;;;;;;;0.10;0.10;;;;;;;;;;4919096;29;20039;-86
2023/12/09 19:30:21;;;;;;;0.10;0.10;;;;;;;;;;4917369;29;20036;-86
2023/12/09 19:32:46;;;;;;;0.10;0.10;;;;;;;;;;4925430;29;20054;-86
2023/12/09 19:35:12;;;;;;;0.10;0.10;;;;;;;;;;4915455;29;20529;-89
2023/12/09 19:37:39;;;;;;;0.00;0.00;;;;;;;;;;4912652;29;20028;-88
2023/12/09 19:40:05;;;;;;;0.10;0.10;;;7.10;99.90;;;;;;4914765;29;20043;-86
2023/12/09 19:42:33;;;;;;;0.10;0.10;;;;;;;;;;4916598;29;20421;-89
2023/12/09 19:44:59;;;;;;;0.10;0.10;;;;;;;;;;4914706;29;20103;-86
2023/12/09 19:47:25;;;;;;;0.10;0.10;;;;;;;;;;4919051;29;20071;-88
2023/12/09 19:49:51;;;;;;;0.10;0.10;;;;;;;;;;4917104;29;20043;-87
2023/12/09 19:52:17;;;;;;;0.10;0.10;;;;;;;;;;4931773;29;20020;-87
2023/12/09 19:54:43;;;;;;;0.00;0.00;;;;;;;;;;4939286;29;20197;-86
2023/12/09 19:57:09;;;;;;;0.05;0.05;;;6.90;99.90;;;;;;4920262;29;20047;-88
2023/12/09 19:59:34;;;;;;;0.10;0.10;;;6.70;99.90;;;;;;4915363;29;20032;-88
2023/12/09 20:02:00;;;;;;;0.10;0.10;;;;;;;;;;4932527;29;20168;-89
2023/12/09 20:04:26;;;;;;;0.10;0.10;;;;;;;;;;4917373;29;20032;-88
2023/12/09 20:06:52;;;;;;;0.10;0.10;;;;;;;;;;4917514;29;20035;-88
2023/12/09 20:09:18;;;;;;;0.10;0.10;;;;;;;;;;4920457;29;20032;-89
2023/12/09 20:11:44;;;;;;;0.10;0.10;;;;;;;;;;4933387;29;20060;-89
2023/12/09 20:14:11;;;;;;;0.10;0.10;;;6.90;99.90;;;;;;4916945;29;20051;-88
2023/12/09 20:16:37;;;;;;;0.05;0.05;;;;;;;;;;4914959;29;20419;-88
2023/12/09 20:19:04;;;;;;;0.10;0.10;;;6.80;99.90;;;;;;4916414;29;20028;-88
2023/12/09 20:21:32;;;;;;;0.00;0.00;;;;;;;;;;4911623;29;20121;-88
2023/12/09 20:23:58;;;;;;;0.10;0.10;;;;;;;;;;4920026;29;20085;-88
2023/12/09 20:26:24;;;;;;;0.10;0.10;;;;;;;;;;4926528;29;20055;-88
2023/12/09 20:28:50;;;;;;;0.00;0.00;;;;;;;;;;4918500;29;20028;-88
2023/12/09 20:31:16;;;;;;;0.00;0.00;;;;;;;;;;4915011;29;20060;-88
2023/12/09 20:33:42;;;;;;;0.10;0.10;;;;;;;;;;4918890;29;20044;-87
2023/12/09 20:36:08;;;;;;;0.10;0.10;;;6.60;99.90;;;;;;4915330;29;20024;-88
2023/12/09 20:38:34;;;;;;;0.10;0.10;;;;;;;;;;4928872;29;20036;-88
2023/12/09 20:40:59;;;;;;;0.10;0.10;;;;;;;;;;4916795;29;20036;-89
2023/12/09 20:43:27;;;;;;;0.10;0.10;;;;;;;;;;4926104;29;20581;-88
2023/12/09 20:45:53;;;;;;;0.10;0.10;;;;;;;;;;4912597;29;20469;-87
2023/12/09 20:48:20;;;;;;;0.00;0.00;;;;;;;;;;4940685;29;20035;-88
2023/12/09 20:50:46;;;;;;;0.00;0.00;;;;;;;;;;4918554;29;20379;-88
2023/12/09 20:53:13;;;;;;;0.10;0.10;;;;;;;;;;4915760;29;20030;-88
2023/12/09 20:55:39;;;;;;;0.10;0.10;;;;;;;;;;4918791;29;20028;-88
2023/12/09 20:58:05;;;;;;;0.03;0.03;;;;;;;;;;4915388;29;20024;-88
2023/12/09 21:00:31;;;;;;;0.10;0.10;;;;;;;;;;4917679;29;20043;-88
2023/12/09 21:02:57;;;;;;;0.10;0.10;;;;;;;;;;4917798;29;20043;-88
2023/12/09 21:05:23;;;;;;;0.00;0.00;;;7.20;99.90;;;;;;4917768;29;20059;-88
2023/12/09 21:07:53;;;;;;;0.00;0.00;;;;;;;;;;4915922;29;20553;-88
2023/12/09 21:10:19;;;;;;;0.00;0.00;;;7.10;99.90;;;;;;4928798;29;20032;-89
2023/12/09 21:12:45;;;;;;;0.10;0.10;;;;;;;;;;4916669;29;20059;-89
2023/12/09 21:15:11;;;;;;;0.10;0.10;;;;;;;;;;4914939;29;20084;-87
2023/12/09 21:17:37;;;;;;;0.10;0.10;;;;;;;;;;4916998;29;20044;-89
2023/12/09 21:20:03;;;;;;;0.10;0.10;;;;;;;;;;4915947;29;20068;-88
2023/12/09 21:22:29;;;;;;;0.10;0.10;;;;;;;;;;4918198;29;20051;-88
2023/12/09 21:24:55;;;;;;;0.10;0.10;;;;;;;;;;4918609;29;20496;-88
2023/12/09 21:27:21;;;;;;;0.10;0.10;;;;;;;;;;4916402;29;20387;-88
2023/12/09 21:29:47;;;;;;;0.10;0.10;;;;;;;;;;4933093;29;20065;-88
2023/12/09 21:32:13;;;;;;;0.10;0.10;;;;;;;;;;4914446;29;20099;-89
2023/12/09 21:34:39;;;;;;;0.10;0.10;;;;;;;;;;4914587;29;20550;-88
2023/12/09 21:37:05;;;;;;;0.10;0.10;;;;;;;;;;4912824;29;20035;-88
2023/12/09 21:39:31;;;;;;;0.00;0.00;;;;;;;;;;4915223;29;20309;-88
2023/12/09 21:41:57;;;;;;;0.00;0.00;;;;;;;;;;4916518;29;20021;-88